createdAt,value
2022-10-11T00:01:46.833Z,72.42
2022-10-11T00:03:50.212Z,72.60
2022-10-11T00:05:54.653Z,73.48
2022-10-11T00:07:58.319Z,73.00
2022-10-11T00:10:03.158Z,73.36
2022-10-11T00:12:07.107Z,74.13
2022-10-11T00:14:10.551Z,73.43
2022-10-11T00:16:15.486Z,74.71
2022-10-11T00:18:18.781Z,73.86
2022-10-11T00:20:22.125Z,73.51
2022-10-11T00:22:25.604Z,74.14
2022-10-11T00:24:28.862Z,73.86
2022-10-11T00:26:33.575Z,73.77
2022-10-11T00:28:37.308Z,73.14
2022-10-11T00:30:44.310Z,73.96
2022-10-11T00:32:47.615Z,73.26
2022-10-11T00:34:50.964Z,74.29
2022-10-11T00:36:54.369Z,73.86
2022-10-11T00:38:57.682Z,73.74
2022-10-11T00:41:01.054Z,73.44
2022-10-11T00:43:12.652Z,73.55
2022-10-11T00:45:53.768Z,73.97
2022-10-11T00:48:01.441Z,73.85
2022-10-11T00:50:05.570Z,73.48
2022-10-11T00:52:16.375Z,73.30
2022-10-11T00:54:23.893Z,72.58
2022-10-11T00:56:32.015Z,73.64
2022-10-11T00:58:38.008Z,72.80
2022-10-11T01:00:41.316Z,73.76
2022-10-11T01:02:45.041Z,73.93
2022-10-11T01:04:54.380Z,73.76
2022-10-11T01:07:09.854Z,73.09
2022-10-11T01:09:14.648Z,73.59
2022-10-11T01:11:22.072Z,73.78
2022-10-11T01:13:37.465Z,74.30
2022-10-11T01:15:47.564Z,74.41
2022-10-11T01:17:58.935Z,74.96
2022-10-11T01:20:25.055Z,75.15
2022-10-11T01:22:52.250Z,75.60
2022-10-11T01:25:15.936Z,74.70
2022-10-11T01:27:44.081Z,75.06
2022-10-11T01:29:54.749Z,74.56
2022-10-11T01:32:08.283Z,74.45
2022-10-11T01:34:16.161Z,74.21
2022-10-11T01:36:27.948Z,74.10
2022-10-11T01:38:38.830Z,74.43
2022-10-11T01:40:48.267Z,74.00
2022-10-11T01:42:53.753Z,74.57
2022-10-11T01:44:59.246Z,74.65
2022-10-11T01:47:04.003Z,74.57
2022-10-11T01:49:07.822Z,74.28
2022-10-11T01:51:11.299Z,74.06
2022-10-11T01:53:40.973Z,74.35
2022-10-11T01:55:50.984Z,74.22
2022-10-11T01:58:15.150Z,74.84
2022-10-11T02:00:20.979Z,74.20
2022-10-11T02:02:38.950Z,74.78
2022-10-11T02:04:46.600Z,74.44
2022-10-11T02:06:58.128Z,74.31
2022-10-11T02:09:12.469Z,74.34
2022-10-11T02:11:22.084Z,74.73
2022-10-11T02:13:29.512Z,74.47
2022-10-11T02:15:36.055Z,74.37
2022-10-11T02:17:44.387Z,74.35
2022-10-11T02:19:51.130Z,74.04
2022-10-11T02:21:59.103Z,74.52
2022-10-11T02:24:07.620Z,74.35
2022-10-11T02:26:13.101Z,75.49
2022-10-11T02:28:22.470Z,75.56
2022-10-11T02:30:25.864Z,75.24
2022-10-11T02:32:31.718Z,75.79
2022-10-11T02:34:38.944Z,74.63
2022-10-11T02:36:49.032Z,75.25
2022-10-11T02:39:00.102Z,74.50
2022-10-11T02:41:12.673Z,74.75
2022-10-11T02:43:23.896Z,73.62
2022-10-11T02:45:32.587Z,74.17
2022-10-11T02:47:36.329Z,74.05
2022-10-11T02:49:41.167Z,74.70
2022-10-11T02:51:44.790Z,74.77
2022-10-11T02:53:48.246Z,74.63
2022-10-11T02:55:53.448Z,75.30
2022-10-11T02:57:56.728Z,75.18
2022-10-11T03:00:00.036Z,74.87
2022-10-11T03:02:03.375Z,75.02
2022-10-11T03:04:06.908Z,75.05
2022-10-11T03:06:11.721Z,74.62
2022-10-11T03:08:16.627Z,74.13
2022-10-11T03:10:19.998Z,74.84
2022-10-11T03:12:23.296Z,74.37
2022-10-11T03:14:26.641Z,74.72
2022-10-11T03:16:29.956Z,74.12
2022-10-11T03:18:33.252Z,73.91
2022-10-11T03:20:36.529Z,73.61
2022-10-11T03:22:41.222Z,74.14
2022-10-11T03:24:44.575Z,73.88
2022-10-11T03:26:47.836Z,74.22
2022-10-11T03:28:51.587Z,73.75
2022-10-11T03:30:55.104Z,73.38
2022-10-11T03:32:58.468Z,74.80
2022-10-11T03:35:01.879Z,74.27
2022-10-11T03:37:05.231Z,73.98
2022-10-11T03:39:09.962Z,73.96
2022-10-11T03:41:13.421Z,73.57
2022-10-11T03:43:17.200Z,74.46
2022-10-11T03:45:20.725Z,74.75
2022-10-11T03:47:24.900Z,74.09
2022-10-11T03:49:28.199Z,74.83
2022-10-11T03:51:32.247Z,74.19
2022-10-11T03:53:35.563Z,74.37
2022-10-11T03:55:41.051Z,74.11
2022-10-11T03:57:44.553Z,75.38
2022-10-11T03:59:48.625Z,75.61
2022-10-11T04:01:51.977Z,74.89
2022-10-11T04:03:56.554Z,75.59
2022-10-11T04:05:59.981Z,75.29
2022-10-11T04:08:04.650Z,75.78
2022-10-11T04:10:10.171Z,76.78
2022-10-11T04:12:14.887Z,76.89
2022-10-11T04:14:18.234Z,76.78
2022-10-11T04:16:21.508Z,75.99
2022-10-11T04:18:25.379Z,78.16
2022-10-11T04:20:29.026Z,78.00
2022-10-11T04:22:33.346Z,78.75
2022-10-11T04:24:36.750Z,79.25
2022-10-11T04:26:40.107Z,79.38
2022-10-11T04:28:44.969Z,79.65
2022-10-11T04:30:48.390Z,81.20
2022-10-11T04:32:51.684Z,81.45
2022-10-11T04:34:55.192Z,81.05
2022-10-11T04:36:58.685Z,81.46
2022-10-11T04:39:02.004Z,81.30
2022-10-11T04:41:09.196Z,81.23
2022-10-11T04:43:12.554Z,80.88
2022-10-11T04:45:17.458Z,80.93
2022-10-11T04:47:20.993Z,82.07
2022-10-11T04:49:24.893Z,82.67
2022-10-11T04:51:28.778Z,83.20
2022-10-11T04:53:32.180Z,83.66
2022-10-11T04:55:35.460Z,84.54
2022-10-11T04:57:38.788Z,86.08
2022-10-11T04:59:45.447Z,86.48
2022-10-11T05:01:52.605Z,86.25
2022-10-11T05:03:56.008Z,87.13
2022-10-11T05:06:04.514Z,87.12
2022-10-11T05:08:09.525Z,87.41
2022-10-11T05:10:12.921Z,86.77
2022-10-11T05:12:16.940Z,86.69
2022-10-11T05:14:20.288Z,86.97
2022-10-11T05:16:24.304Z,86.52
2022-10-11T05:18:29.358Z,85.97
2022-10-11T05:20:32.645Z,86.36
2022-10-11T05:22:35.929Z,86.39
2022-10-11T05:24:39.468Z,86.47
2022-10-11T05:26:42.957Z,86.19
2022-10-11T05:28:47.145Z,86.96
2022-10-11T05:30:50.760Z,86.82
2022-10-11T05:32:54.088Z,86.74
2022-10-11T05:34:58.867Z,87.33
2022-10-11T05:37:02.309Z,87.02
2022-10-11T05:39:05.647Z,87.19
2022-10-11T05:41:10.001Z,87.14
2022-10-11T05:43:13.412Z,86.35
2022-10-11T05:45:16.803Z,86.90
2022-10-11T05:47:20.346Z,87.24
2022-10-11T05:49:23.742Z,86.80
2022-10-11T05:51:28.436Z,86.66
2022-10-11T05:53:32.707Z,86.69
2022-10-11T05:55:39.947Z,87.18
2022-10-11T05:57:44.303Z,87.05
2022-10-11T05:59:47.687Z,87.57
2022-10-11T06:01:51.034Z,88.23
2022-10-11T06:03:55.806Z,88.39
2022-10-11T06:06:02.959Z,88.20
2022-10-11T06:08:09.979Z,88.26
2022-10-11T06:10:13.320Z,87.93
2022-10-11T06:12:17.208Z,87.99
2022-10-11T06:14:20.523Z,86.99
2022-10-11T06:16:23.886Z,87.84
2022-10-11T06:18:27.190Z,87.33
2022-10-11T06:20:30.512Z,86.80
2022-10-11T06:22:33.870Z,86.62
2022-10-11T06:24:38.652Z,87.48
2022-10-11T06:26:41.977Z,87.57
2022-10-11T06:28:45.533Z,88.39
2022-10-11T06:30:48.914Z,88.56
2022-10-11T06:32:52.231Z,89.18
2022-10-11T06:34:55.618Z,89.79
2022-10-11T06:36:58.953Z,90.11
2022-10-11T06:39:02.365Z,89.93
2022-10-11T06:41:17.111Z,89.82
2022-10-11T06:43:20.679Z,90.26
2022-10-11T06:45:24.030Z,90.67
2022-10-11T06:47:27.439Z,91.46
2022-10-11T06:49:30.745Z,91.82
2022-10-11T06:51:35.617Z,91.21
2022-10-11T06:53:39.093Z,90.72
2022-10-11T06:55:42.387Z,91.64
2022-10-11T06:57:47.076Z,91.82
2022-10-11T06:59:50.358Z,92.26
2022-10-11T07:01:53.727Z,91.54
2022-10-11T07:04:00.691Z,92.21
2022-10-11T07:06:05.797Z,91.54
2022-10-11T07:08:09.560Z,91.36
2022-10-11T07:10:12.846Z,90.16
2022-10-11T07:12:17.058Z,90.82
2022-10-11T07:14:21.728Z,91.46
2022-10-11T07:16:26.197Z,91.36
2022-10-11T07:18:29.546Z,91.87
2022-10-11T07:20:33.115Z,92.17
2022-10-11T07:22:36.600Z,92.39
2022-10-11T07:24:39.969Z,92.24
2022-10-11T07:26:43.341Z,93.24
2022-10-11T07:28:47.507Z,93.45
2022-10-11T07:30:52.707Z,93.14
2022-10-11T07:32:56.291Z,93.79
2022-10-11T07:34:59.636Z,93.55
2022-10-11T07:37:02.936Z,93.83
2022-10-11T07:39:07.930Z,94.35
2022-10-11T07:41:11.530Z,94.20
2022-10-11T07:43:15.439Z,93.55
2022-10-11T07:45:19.075Z,92.90
2022-10-11T07:47:24.030Z,92.88
2022-10-11T07:49:28.477Z,93.38
2022-10-11T07:51:31.802Z,93.87
2022-10-11T07:53:39.681Z,92.90
2022-10-11T07:55:42.977Z,94.07
2022-10-11T07:57:46.308Z,93.32
2022-10-11T07:59:50.451Z,93.56
2022-10-11T08:01:53.890Z,92.64
2022-10-11T08:03:59.341Z,93.21
2022-10-11T08:06:05.053Z,92.63
2022-10-11T08:08:11.441Z,92.73
2022-10-11T08:10:14.747Z,92.67
2022-10-11T08:12:18.087Z,92.53
2022-10-11T08:14:21.778Z,93.40
2022-10-11T08:16:25.423Z,93.64
2022-10-11T08:18:28.737Z,94.01
2022-10-11T08:20:33.419Z,93.19
2022-10-11T08:22:36.735Z,93.75
2022-10-11T08:24:40.075Z,94.24
2022-10-11T08:26:44.219Z,94.36
2022-10-11T08:28:47.701Z,93.66
2022-10-11T08:30:51.975Z,94.69
2022-10-11T08:32:55.310Z,93.37
2022-10-11T08:34:58.650Z,94.21
2022-10-11T08:37:03.413Z,93.95
2022-10-11T08:39:07.764Z,93.80
2022-10-11T08:41:29.347Z,93.69
2022-10-11T08:43:41.696Z,93.60
2022-10-11T08:45:51.297Z,93.18
2022-10-11T08:48:03.414Z,92.79
2022-10-11T08:50:08.978Z,93.21
2022-10-11T08:52:19.204Z,92.62
2022-10-11T08:54:31.369Z,92.68
2022-10-11T08:56:38.696Z,92.16
2022-10-11T08:58:47.715Z,93.26
2022-10-11T09:00:54.161Z,92.68
2022-10-11T09:03:09.581Z,92.32
2022-10-11T09:05:16.732Z,92.60
2022-10-11T09:07:34.112Z,92.17
2022-10-11T09:09:55.619Z,92.25
2022-10-11T09:12:11.228Z,92.62
2022-10-11T09:14:39.315Z,92.42
2022-10-11T09:16:54.545Z,93.01
2022-10-11T09:19:20.949Z,91.96
2022-10-11T09:21:41.980Z,91.68
2022-10-11T09:24:23.087Z,91.04
2022-10-11T09:26:29.852Z,90.78
2022-10-11T09:28:44.334Z,90.11
2022-10-11T09:30:50.234Z,90.98
2022-10-11T09:33:03.769Z,90.64
2022-10-11T09:35:13.513Z,90.41
2022-10-11T09:37:23.539Z,89.93
2022-10-11T09:39:31.253Z,90.49
2022-10-11T09:41:40.041Z,90.27
2022-10-11T09:43:48.439Z,89.25
2022-10-11T09:45:51.904Z,90.09
2022-10-11T09:47:58.102Z,89.15
2022-10-11T09:50:04.801Z,90.04
2022-10-11T09:52:16.449Z,88.25
2022-10-11T09:54:27.217Z,88.38
2022-10-11T09:56:34.626Z,87.85
2022-10-11T09:58:38.646Z,87.99
2022-10-11T10:00:42.011Z,87.87
2022-10-11T10:02:47.514Z,87.22
2022-10-11T10:05:16.346Z,87.12
2022-10-11T10:07:19.729Z,86.16
2022-10-11T10:09:28.426Z,86.30
2022-10-11T10:11:37.911Z,86.60
2022-10-11T10:13:47.770Z,85.39
2022-10-11T10:15:53.542Z,85.41
2022-10-11T10:17:57.395Z,84.88
2022-10-11T10:20:01.407Z,84.61
2022-10-11T10:22:04.768Z,85.30
2022-10-11T10:24:17.954Z,85.17
2022-10-11T10:26:23.285Z,85.10
2022-10-11T10:28:28.598Z,86.17
2022-10-11T10:30:35.576Z,86.12
2022-10-11T10:32:53.279Z,84.69
2022-10-11T10:35:03.978Z,84.34
2022-10-11T10:37:19.040Z,81.56
2022-10-11T10:39:31.793Z,81.31
2022-10-11T10:41:35.991Z,79.70
2022-10-11T10:43:42.800Z,80.49
2022-10-11T10:46:16.588Z,78.26
2022-10-11T10:48:48.155Z,79.78
2022-10-11T10:50:59.485Z,78.61
2022-10-11T10:53:16.963Z,78.67
2022-10-11T10:55:26.796Z,77.94
2022-10-11T10:57:37.384Z,75.19
2022-10-11T11:00:03.758Z,76.29
2022-10-11T11:02:39.010Z,73.53
2022-10-11T11:04:38.883Z,74.79
2022-10-11T11:06:50.703Z,72.12
2022-10-11T11:09:06.725Z,73.41
2022-10-11T11:11:26.219Z,71.12
2022-10-11T11:13:39.106Z,70.04
2022-10-11T11:15:47.604Z,68.22
2022-10-11T11:18:02.495Z,66.14
2022-10-11T11:20:24.666Z,64.92
2022-10-11T11:22:36.936Z,63.89
2022-10-11T11:24:48.446Z,62.74
2022-10-11T11:27:02.803Z,62.05
2022-10-11T11:29:25.679Z,62.70
2022-10-11T11:31:50.843Z,62.07
2022-10-11T11:34:04.019Z,61.56
2022-10-11T11:36:14.673Z,60.61
2022-10-11T11:38:29.347Z,59.67
2022-10-11T11:40:38.249Z,59.64
2022-10-11T11:42:46.359Z,60.21
2022-10-11T11:44:51.362Z,60.77
2022-10-11T11:47:01.364Z,59.32
2022-10-11T11:49:13.284Z,58.52
2022-10-11T11:51:21.021Z,59.09
2022-10-11T11:53:32.994Z,57.56
2022-10-11T11:55:44.397Z,57.22
2022-10-11T11:57:57.435Z,55.19
2022-10-11T12:00:06.269Z,57.16
2022-10-11T12:02:34.420Z,55.35
2022-10-11T12:04:42.066Z,55.39
2022-10-11T12:07:11.181Z,53.62
2022-10-11T12:09:21.557Z,53.06
2022-10-11T12:11:31.668Z,53.28
2022-10-11T12:13:39.673Z,54.08
2022-10-11T12:16:09.645Z,52.37
2022-10-11T12:18:18.213Z,52.42
2022-10-11T12:20:25.275Z,51.04
2022-10-11T12:22:58.197Z,48.93
2022-10-11T12:25:22.580Z,49.38
2022-10-11T12:27:40.643Z,50.80
2022-10-11T12:29:48.882Z,50.57
2022-10-11T12:32:14.064Z,48.87
2022-10-11T12:34:35.884Z,50.77
2022-10-11T12:36:41.229Z,51.12
2022-10-11T12:38:44.503Z,51.17
2022-10-11T12:40:49.474Z,50.90
2022-10-11T12:43:12.194Z,49.53
2022-10-11T12:45:35.409Z,48.83
2022-10-11T12:47:44.400Z,47.32
2022-10-11T12:50:00.031Z,48.14
2022-10-11T12:52:06.906Z,47.92
2022-10-11T12:54:31.029Z,46.64
2022-10-11T12:56:47.994Z,46.84
2022-10-11T12:58:51.370Z,46.50
2022-10-11T13:01:34.064Z,43.79
2022-10-11T13:03:41.298Z,44.27
2022-10-11T13:05:52.466Z,44.00
2022-10-11T13:08:00.081Z,43.77
2022-10-11T13:10:05.421Z,42.41
2022-10-11T13:12:14.512Z,42.51
2022-10-11T13:14:20.988Z,41.86
2022-10-11T13:16:27.017Z,42.18
2022-10-11T13:18:30.507Z,42.86
2022-10-11T13:20:38.775Z,42.23
2022-10-11T13:22:49.329Z,42.45
2022-10-11T13:24:57.071Z,41.70
2022-10-11T13:27:00.392Z,41.37
2022-10-11T13:29:03.821Z,41.75
2022-10-11T13:31:07.895Z,41.73
2022-10-11T13:33:20.388Z,43.89
2022-10-11T13:35:30.450Z,44.52
2022-10-11T13:37:43.443Z,44.54
2022-10-11T13:39:49.843Z,43.73
2022-10-11T13:41:53.545Z,43.28
2022-10-11T13:43:59.201Z,42.33
2022-10-11T13:46:05.062Z,42.30
2022-10-11T13:48:15.961Z,42.01
2022-10-11T13:50:30.598Z,40.84
2022-10-11T13:52:35.050Z,41.79
2022-10-11T13:55:09.100Z,40.15
2022-10-11T13:57:14.255Z,40.78
2022-10-11T13:59:21.650Z,40.81
2022-10-11T14:01:27.861Z,41.99
2022-10-11T14:03:39.992Z,42.49
2022-10-11T14:05:45.973Z,43.43
2022-10-11T14:07:49.362Z,44.66
2022-10-11T14:09:53.274Z,45.06
2022-10-11T14:12:30.018Z,44.65
2022-10-11T14:14:43.637Z,45.55
2022-10-11T14:16:56.544Z,43.91
2022-10-11T14:19:11.530Z,43.86
2022-10-11T14:21:30.876Z,42.99
2022-10-11T14:23:34.209Z,43.21
2022-10-11T14:25:37.569Z,42.35
2022-10-11T14:27:42.677Z,42.51
2022-10-11T14:30:00.433Z,41.47
2022-10-11T14:32:15.948Z,41.74
2022-10-11T14:34:22.003Z,41.36
2022-10-11T14:36:26.137Z,41.05
2022-10-11T14:38:29.576Z,40.79
2022-10-11T14:40:33.042Z,41.58
2022-10-11T14:42:36.324Z,41.97
2022-10-11T14:44:41.082Z,42.06
2022-10-11T14:46:45.188Z,40.86
2022-10-11T14:48:56.707Z,41.21
2022-10-11T14:51:03.619Z,40.15
2022-10-11T14:53:08.470Z,40.53
2022-10-11T14:55:11.866Z,40.54
2022-10-11T14:57:15.204Z,39.81
2022-10-11T14:59:22.041Z,40.06
2022-10-11T15:01:26.838Z,40.15
2022-10-11T15:03:31.715Z,39.74
2022-10-11T15:05:36.183Z,39.64
2022-10-11T15:07:39.517Z,40.31
2022-10-11T15:09:42.831Z,40.40
2022-10-11T15:11:46.126Z,40.45
2022-10-11T15:13:50.527Z,40.97
2022-10-11T15:15:53.805Z,41.19
2022-10-11T15:17:59.947Z,41.46
2022-10-11T15:20:08.361Z,42.44
2022-10-11T15:22:11.652Z,42.88
2022-10-11T15:24:15.669Z,42.35
2022-10-11T15:26:24.558Z,43.55
2022-10-11T15:28:31.318Z,43.74
2022-10-11T15:30:40.953Z,44.62
2022-10-11T15:32:46.575Z,44.34
2022-10-11T15:34:51.287Z,45.17
2022-10-11T15:36:54.644Z,45.90
2022-10-11T15:38:58.285Z,46.09
2022-10-11T15:41:01.972Z,46.72
2022-10-11T15:43:05.534Z,46.49
2022-10-11T15:45:09.954Z,46.86
2022-10-11T15:47:13.359Z,47.84
2022-10-11T15:49:17.492Z,48.36
2022-10-11T15:51:24.815Z,48.99
2022-10-11T15:53:31.213Z,48.86
2022-10-11T15:55:37.832Z,49.63
2022-10-11T15:57:41.118Z,49.93
2022-10-11T15:59:44.386Z,50.40
2022-10-11T16:01:50.644Z,50.92
2022-10-11T16:03:54.143Z,50.98
2022-10-11T16:06:03.863Z,51.23
2022-10-11T16:08:11.003Z,51.16
2022-10-11T16:10:14.455Z,51.52
2022-10-11T16:12:17.710Z,51.64
2022-10-11T16:14:21.041Z,51.97
2022-10-11T16:16:24.522Z,51.81
2022-10-11T16:18:32.651Z,51.77
2022-10-11T16:20:39.036Z,52.14
2022-10-11T16:22:42.917Z,52.28
2022-10-11T16:24:47.697Z,52.49
2022-10-11T16:26:51.028Z,52.60
2022-10-11T16:28:56.557Z,53.10
2022-10-11T16:31:01.505Z,53.39
2022-10-11T16:33:04.938Z,53.63
2022-10-11T16:35:09.403Z,53.43
2022-10-11T16:37:13.788Z,53.67
2022-10-11T16:39:19.477Z,53.59
2022-10-11T16:41:24.145Z,54.34
2022-10-11T16:43:27.594Z,54.73
2022-10-11T16:45:32.400Z,55.01
2022-10-11T16:47:35.861Z,55.23
2022-10-11T16:49:39.363Z,55.74
2022-10-11T16:51:42.849Z,56.27
2022-10-11T16:53:48.720Z,56.32
2022-10-11T16:55:52.372Z,56.66
2022-10-11T16:57:57.173Z,57.06
2022-10-11T17:00:00.516Z,57.40
2022-10-11T17:02:05.073Z,57.58
2022-10-11T17:04:08.816Z,58.05
2022-10-11T17:06:12.270Z,58.17
2022-10-11T17:08:15.543Z,58.51
2022-10-11T17:10:19.014Z,58.67
2022-10-11T17:12:24.304Z,58.95
2022-10-11T17:14:29.460Z,59.03
2022-10-11T17:16:33.017Z,59.32
2022-10-11T17:18:36.779Z,59.55
2022-10-11T17:20:40.100Z,59.88
2022-10-11T17:22:43.399Z,60.09
2022-10-11T17:24:47.576Z,60.14
2022-10-11T17:26:52.711Z,60.20
2022-10-11T17:28:58.332Z,60.50
2022-10-11T17:31:04.983Z,60.53
2022-10-11T17:33:08.955Z,60.84
2022-10-11T17:35:13.484Z,61.24
2022-10-11T17:37:16.823Z,61.28
2022-10-11T17:39:22.314Z,61.49
2022-10-11T17:41:30.880Z,61.95
2022-10-11T17:43:35.556Z,62.10
2022-10-11T17:45:38.937Z,62.41
2022-10-11T17:47:43.742Z,62.44
2022-10-11T17:49:47.319Z,62.75
2022-10-11T17:51:50.638Z,63.00
2022-10-11T17:53:54.853Z,63.15
2022-10-11T17:56:00.764Z,63.36
2022-10-11T17:58:04.343Z,63.40
2022-10-11T18:00:08.861Z,63.67
2022-10-11T18:02:12.244Z,64.08
2022-10-11T18:04:17.734Z,64.17
2022-10-11T18:06:21.021Z,64.33
2022-10-11T18:08:24.431Z,64.36
2022-10-11T18:10:28.471Z,64.43
2022-10-11T18:12:31.862Z,65.61
2022-10-11T18:14:35.219Z,65.67
2022-10-11T18:16:39.554Z,65.87
2022-10-11T18:18:44.237Z,66.00
2022-10-11T18:20:50.463Z,66.98
2022-10-11T18:22:54.335Z,67.18
2022-10-11T18:24:57.787Z,66.90
2022-10-11T18:27:01.158Z,68.34
2022-10-11T18:29:05.338Z,69.53
2022-10-11T18:31:12.881Z,70.48
2022-10-11T18:33:18.477Z,70.57
2022-10-11T18:35:21.782Z,70.83
2022-10-11T18:37:26.770Z,71.47
2022-10-11T18:39:30.103Z,71.31
2022-10-11T18:41:35.194Z,70.68
2022-10-11T18:43:38.778Z,70.65
2022-10-11T18:45:42.093Z,70.31
2022-10-11T18:47:45.487Z,69.82
2022-10-11T18:49:49.194Z,70.66
2022-10-11T18:51:52.476Z,70.72
2022-10-11T18:53:58.595Z,70.36
2022-10-11T18:56:03.019Z,70.37
2022-10-11T18:58:06.742Z,69.79
2022-10-11T19:00:30.795Z,69.77
2022-10-11T19:02:34.961Z,69.80
2022-10-11T19:04:39.721Z,69.64
2022-10-11T19:06:45.508Z,69.36
2022-10-11T19:08:51.298Z,70.34
2022-10-11T19:10:55.976Z,71.91
2022-10-11T19:12:59.457Z,72.71
2022-10-11T19:15:02.762Z,72.45
2022-10-11T19:17:06.694Z,72.65
2022-10-11T19:19:13.091Z,73.12
2022-10-11T19:21:16.480Z,73.99
2022-10-11T19:23:23.527Z,74.24
2022-10-11T19:25:26.840Z,74.59
2022-10-11T19:27:31.632Z,74.05
2022-10-11T19:29:34.941Z,73.47
2022-10-11T19:31:43.062Z,73.54
2022-10-11T19:33:49.399Z,72.88
2022-10-11T19:35:55.681Z,72.74
2022-10-11T19:37:58.944Z,71.99
2022-10-11T19:40:03.915Z,71.51
2022-10-11T19:42:07.469Z,71.49
2022-10-11T19:44:13.087Z,71.23
2022-10-11T19:46:37.873Z,70.96
2022-10-11T19:48:44.989Z,70.91
2022-10-11T19:50:48.522Z,71.30
2022-10-11T19:52:51.836Z,70.97
2022-10-11T19:54:55.164Z,70.79
2022-10-11T19:56:58.473Z,70.02
2022-10-11T19:59:02.445Z,70.26
2022-10-11T20:01:09.964Z,70.11
2022-10-11T20:03:13.313Z,70.22
2022-10-11T20:05:16.749Z,70.34
2022-10-11T20:07:20.145Z,70.95
2022-10-11T20:09:29.620Z,70.42
2022-10-11T20:11:33.975Z,70.39
2022-10-11T20:13:38.419Z,70.63
2022-10-11T20:15:42.025Z,70.71
2022-10-11T20:17:49.979Z,70.33
2022-10-11T20:19:53.482Z,70.66
2022-10-11T20:21:57.126Z,70.57
2022-10-11T20:24:02.277Z,70.07
2022-10-11T20:26:08.143Z,70.14
2022-10-11T20:28:11.630Z,69.88
2022-10-11T20:30:14.990Z,69.48
2022-10-11T20:32:18.464Z,69.95
2022-10-11T20:34:23.424Z,69.98
2022-10-11T20:36:29.468Z,70.37
2022-10-11T20:38:34.647Z,70.67
2022-10-11T20:40:41.182Z,70.48
2022-10-11T20:42:44.563Z,70.72
2022-10-11T20:44:49.334Z,70.39
2022-10-11T20:46:52.743Z,70.22
2022-10-11T20:49:01.342Z,70.10
2022-10-11T20:51:07.854Z,69.95
2022-10-11T20:53:16.164Z,69.98
2022-10-11T20:55:21.003Z,70.22
2022-10-11T20:57:24.470Z,70.21
2022-10-11T20:59:29.993Z,70.08
2022-10-11T21:01:35.591Z,70.05
2022-10-11T21:03:39.217Z,69.78
2022-10-11T21:05:42.917Z,69.81
2022-10-11T21:07:50.150Z,69.67
2022-10-11T21:09:55.420Z,70.04
2022-10-11T21:11:58.742Z,69.57
2022-10-11T21:14:05.345Z,70.26
2022-10-11T21:16:11.887Z,69.66
2022-10-11T21:18:15.964Z,68.36
2022-10-11T21:20:19.622Z,69.73
2022-10-11T21:22:22.931Z,69.05
2022-10-11T21:24:28.014Z,69.26
2022-10-11T21:26:31.893Z,70.28
2022-10-11T21:28:35.445Z,70.17
2022-10-11T21:30:38.949Z,70.66
2022-10-11T21:32:42.349Z,70.88
2022-10-11T21:34:46.317Z,70.48
2022-10-11T21:36:49.588Z,69.85
2022-10-11T21:38:53.976Z,70.25
2022-10-11T21:40:58.707Z,70.17
2022-10-11T21:43:02.137Z,69.84
2022-10-11T21:45:06.384Z,70.35
2022-10-11T21:47:10.167Z,69.07
2022-10-11T21:49:13.561Z,70.49
2022-10-11T21:51:20.669Z,70.16
2022-10-11T21:53:23.927Z,70.72
2022-10-11T21:55:28.131Z,70.04
2022-10-11T21:57:33.117Z,70.36
2022-10-11T21:59:36.471Z,69.81
2022-10-11T22:01:40.154Z,70.84
2022-10-11T22:03:43.536Z,70.91
2022-10-11T22:05:47.770Z,71.20
2022-10-11T22:07:51.077Z,71.25
2022-10-11T22:09:54.419Z,71.55
2022-10-11T22:11:58.063Z,71.91
2022-10-11T22:14:02.828Z,71.40
2022-10-11T22:16:07.432Z,71.52
2022-10-11T22:18:10.785Z,72.10
2022-10-11T22:20:14.503Z,72.38
2022-10-11T22:22:17.881Z,71.99
2022-10-11T22:24:21.217Z,72.00
2022-10-11T22:26:26.705Z,71.64
2022-10-11T22:28:30.098Z,72.13
2022-10-11T22:30:35.128Z,72.34
2022-10-11T22:32:38.647Z,72.25
2022-10-11T22:34:42.012Z,72.19
2022-10-11T22:36:45.295Z,71.94
2022-10-11T22:38:48.631Z,71.96
2022-10-11T22:40:52.379Z,72.12
2022-10-11T22:42:55.800Z,71.10
2022-10-11T22:44:59.122Z,71.68
2022-10-11T22:47:03.750Z,72.46
2022-10-11T22:49:07.324Z,72.51
2022-10-11T22:51:10.793Z,73.63
2022-10-11T22:53:15.189Z,72.48
2022-10-11T22:55:20.295Z,72.06
2022-10-11T22:57:23.827Z,72.95
2022-10-11T22:59:27.167Z,72.72
2022-10-11T23:01:30.451Z,72.51
2022-10-11T23:03:35.148Z,71.55
2022-10-11T23:05:38.603Z,72.30
2022-10-11T23:07:41.999Z,72.01
2022-10-11T23:09:45.330Z,72.90
2022-10-11T23:11:48.635Z,71.65
2022-10-11T23:13:53.107Z,71.83
2022-10-11T23:15:56.637Z,72.34
2022-10-11T23:17:59.951Z,72.29
2022-10-11T23:20:05.882Z,71.64
2022-10-11T23:22:09.319Z,72.66
2022-10-11T23:24:12.679Z,72.16
2022-10-11T23:26:17.690Z,73.01
2022-10-11T23:28:21.049Z,72.06
2022-10-11T23:30:24.322Z,71.75
2022-10-11T23:32:29.458Z,72.36
2022-10-11T23:34:32.883Z,71.82
2022-10-11T23:36:37.531Z,71.27
2022-10-11T23:38:40.889Z,72.15
2022-10-11T23:40:44.213Z,72.67
2022-10-11T23:42:47.550Z,72.13
2022-10-11T23:44:52.762Z,71.82
2022-10-11T23:46:56.102Z,72.50
2022-10-11T23:49:04.934Z,72.10
2022-10-11T23:51:08.677Z,72.35
2022-10-11T23:53:14.270Z,72.76
2022-10-11T23:55:18.084Z,72.40
2022-10-11T23:57:21.382Z,72.85
2022-10-11T23:59:24.696Z,73.21
